Time;durP1;ratioP1;P1;durP2;ratioP2;P2;SDS_P1;SDS_P2;PMS_P1;PMS_P2;Temp;Humidity;BMP_temperature;BMP_pressure;BME280_temperature;BME280_humidity;BME280_pressure;Samples;Min_cycle;Max_cycle;Signal;HPM_P1;HPM_P2
2022/10/24 00:00:43;;;;;;;27.93;20.80;;;;;;;;;;770704;181;816778;-62
2022/10/24 00:03:09;;;;;;;26.97;19.00;;;;;;;;;;765397;181;817228;-62
2022/10/24 00:05:35;;;;;;;26.50;18.53;;;;;;;;;;763235;180;803356;-69
2022/10/24 00:08:01;;;;;;;25.03;18.80;;;;;;;;;;763375;181;912192;-68
2022/10/24 00:10:27;;;;;;;24.63;18.40;;;;;;;;;;760849;180;919266;-62
2022/10/24 00:12:53;;;;;;;28.93;18.27;;;;;;;;;;749579;184;917312;-69
2022/10/24 00:15:18;;;;;;;34.10;20.03;;;;;;;;;;750846;183;627769;-62
2022/10/24 00:17:44;;;;;;;27.00;18.73;;;;;;;;;;772479;179;631188;-62
2022/10/24 00:20:10;;;;;;;29.53;17.73;;;;;;;;;;769211;180;619759;-62
2022/10/24 00:22:36;;;;;;;27.83;19.10;;;;;;;;;;765183;179;1018231;-62
2022/10/24 00:25:02;;;;;;;24.43;17.17;;;;;;;;;;768374;181;945975;-69
2022/10/24 00:27:28;;;;;;;23.35;15.82;;;;;;;;;;763681;181;857781;-62
2022/10/24 00:29:54;;;;;;;23.97;16.57;;;;;;;;;;765532;181;872368;-69
2022/10/24 00:32:19;;;;;;;23.43;16.00;;;;;;;;;;769184;181;866661;-69
2022/10/24 00:34:45;;;;;;;26.13;17.37;;;;;;;;;;765653;181;919593;-69
2022/10/24 00:37:11;;;;;;;31.50;17.43;;;;;;;;;;768624;180;918634;-62
2022/10/24 00:39:37;;;;;;;33.23;17.73;;;;;;;;;;767334;181;922977;-62
2022/10/24 00:42:03;;;;;;;36.57;16.13;;;;;;;;;;770504;181;916048;-69
2022/10/24 00:44:30;;;;;;;26.60;17.07;;;;;;;;;;766534;179;916301;-61
2022/10/24 00:47:06;;;;;;;24.47;15.10;;;;;;;;;;767068;181;920289;-69
2022/10/24 00:49:32;;;;;;;24.90;15.03;;;;;;;;;;763594;181;917760;-68
2022/10/24 00:51:58;;;;;;;27.10;16.77;;;;;;;;;;770641;179;914552;-61
2022/10/24 00:54:24;;;;;;;28.10;15.07;;;;;;;;;;766118;179;919138;-62
2022/10/24 00:56:50;;;;;;;36.97;15.70;;;;;;;;;;762332;181;918092;-69
2022/10/24 00:59:16;;;;;;;20.60;14.83;;;;;;;;;;768639;181;920803;-62
2022/10/24 01:01:42;;;;;;;20.80;13.37;;;;;;;;;;765898;181;921679;-61
2022/10/24 01:04:07;;;;;;;26.53;16.10;;;;;;;;;;766014;181;917978;-62
2022/10/24 01:06:50;;;;;;;22.58;14.43;;;;;;;;;;771020;182;919631;-69
2022/10/24 01:09:31;;;;;;;22.03;13.70;;;;;;;;;;778055;179;905304;-63
2022/10/24 01:12:11;;;;;;;24.93;13.53;;;;;;;;;;767248;182;874151;-71
2022/10/24 01:14:41;;;;;;;21.13;12.83;;;;;;;;;;756298;184;889010;-70
2022/10/24 01:17:13;;;;;;;21.20;13.70;;;;;;;;;;754759;183;919406;-70
2022/10/24 01:19:44;;;;;;;21.50;12.10;;;;;;;;;;756726;178;811757;-70
2022/10/24 01:22:20;;;;;;;17.17;11.90;;;;;;;;;;759149;178;811887;-63
2022/10/24 01:24:48;;;;;;;16.70;11.77;;;;;;;;;;752106;184;910465;-63
2022/10/24 01:27:20;;;;;;;21.73;12.80;;;;;;;;;;773755;180;787740;-69
2022/10/24 01:29:46;;;;;;;19.33;11.10;;;;;;;;;;776885;178;918276;-68
2022/10/24 01:32:20;;;;;;;19.57;11.20;;;;;;;;;;760574;180;918531;-63
2022/10/24 01:34:46;;;;;;;15.70;10.23;;;;;;;;;;744777;184;922494;-62
2022/10/24 01:37:13;;;;;;;15.60;10.20;;;;;;;;;;756716;184;919915;-69
2022/10/24 01:39:39;;;;;;;18.07;11.47;;;;;;;;;;751288;183;920207;-70
2022/10/24 01:42:04;;;;;;;14.70;9.70;;;;;;;;;;749450;184;1021955;-63
2022/10/24 01:44:30;;;;;;;17.87;11.83;;;;;;;;;;751962;184;919737;-63
2022/10/24 01:46:57;;;;;;;19.03;12.20;;;;;;;;;;773355;180;919145;-63
2022/10/24 01:49:23;;;;;;;16.03;11.60;;;;;;;;;;769137;180;921038;-61
2022/10/24 01:51:49;;;;;;;16.37;12.70;;;;;;;;;;770764;180;919264;-62
2022/10/24 01:54:14;;;;;;;19.10;11.90;;;;;;;;;;753356;181;918503;-73
2022/10/24 01:56:40;;;;;;;18.57;11.60;;;;;;;;;;755907;184;920030;-69
2022/10/24 01:59:06;;;;;;;16.10;11.20;;;;;;;;;;748535;183;922839;-60
2022/10/24 02:01:32;;;;;;;17.57;11.87;;;;;;;;;;756301;184;818040;-60
2022/10/24 02:03:58;;;;;;;25.80;13.07;;;;;;;;;;767297;181;918968;-61
2022/10/24 02:06:25;;;;;;;17.50;13.32;;;;;;;;;;764591;181;919222;-61
2022/10/24 02:08:50;;;;;;;17.37;12.60;;;;;;;;;;765385;182;918665;-61
2022/10/24 02:11:16;;;;;;;20.93;12.40;;;;;;;;;;770453;182;919067;-68
2022/10/24 02:13:48;;;;;;;24.93;12.77;;;;;;;;;;764972;182;916254;-69
2022/10/24 02:16:14;;;;;;;26.97;15.37;;;;;;;;;;764596;179;917732;-61
2022/10/24 02:18:40;;;;;;;21.50;13.40;;;;;;;;;;771296;181;918060;-67
2022/10/24 02:21:07;;;;;;;21.40;13.20;;;;;;;;;;764211;181;919024;-61
2022/10/24 02:23:33;;;;;;;31.90;14.60;;;;;;;;;;761406;179;919237;-69
2022/10/24 02:25:59;;;;;;;27.33;14.67;;;;;;;;;;749992;184;918775;-68
2022/10/24 02:28:25;;;;;;;21.80;12.93;;;;;;;;;;757342;184;920406;-61
2022/10/24 02:30:55;;;;;;;24.77;13.10;;;;;;;;;;760662;179;919012;-61
2022/10/24 02:33:21;;;;;;;19.07;13.93;;;;;;;;;;751114;183;916679;-59
2022/10/24 02:35:47;;;;;;;23.63;13.30;;;;;;;;;;767693;181;918452;-69
2022/10/24 02:38:15;;;;;;;19.80;13.90;;;;;;;;;;766001;181;918871;-61
2022/10/24 02:40:41;;;;;;;21.23;14.27;;;;;;;;;;763318;181;918985;-60
2022/10/24 02:43:06;;;;;;;22.30;14.70;;;;;;;;;;762922;180;919945;-61
2022/10/24 02:45:32;;;;;;;24.83;16.20;;;;;;;;;;768098;182;919614;-68
2022/10/24 02:47:58;;;;;;;32.07;15.33;;;;;;;;;;763652;180;822467;-68
2022/10/24 02:50:24;;;;;;;27.37;17.00;;;;;;;;;;764479;181;919258;-68
2022/10/24 02:52:50;;;;;;;24.23;15.67;;;;;;;;;;768228;181;918860;-61
2022/10/24 02:55:16;;;;;;;24.83;14.77;;;;;;;;;;767863;181;823694;-61
2022/10/24 02:57:41;;;;;;;21.60;15.20;;;;;;;;;;765805;181;918843;-68
2022/10/24 03:00:08;;;;;;;24.40;16.30;;;;;;;;;;772807;180;919344;-60
2022/10/24 03:02:34;;;;;;;23.43;14.97;;;;;;;;;;765624;181;918669;-70
2022/10/24 03:04:59;;;;;;;19.67;13.70;;;;;;;;;;764680;181;918901;-61
2022/10/24 03:07:25;;;;;;;17.53;13.37;;;;;;;;;;767215;181;916913;-68
2022/10/24 03:09:51;;;;;;;16.97;12.00;;;;;;;;;;772602;179;851657;-61
2022/10/24 03:12:17;;;;;;;18.70;13.43;;;;;;;;;;765326;181;921324;-61
2022/10/24 03:14:43;;;;;;;20.90;15.37;;;;;;;;;;763012;181;919861;-70
2022/10/24 03:17:09;;;;;;;22.57;14.50;;;;;;;;;;770818;181;918545;-62
2022/10/24 03:19:35;;;;;;;20.87;16.17;;;;;;;;;;765434;180;918418;-62
2022/10/24 03:22:00;;;;;;;21.33;14.47;;;;;;;;;;764973;181;919569;-68
2022/10/24 03:24:26;;;;;;;21.20;15.50;;;;;;;;;;769355;181;919359;-69
2022/10/24 03:26:52;;;;;;;20.90;14.63;;;;;;;;;;764849;181;918610;-68
2022/10/24 03:29:18;;;;;;;19.43;13.10;;;;;;;;;;764971;181;918756;-60
2022/10/24 03:31:44;;;;;;;22.83;17.70;;;;;;;;;;763044;180;918043;-68
2022/10/24 03:34:10;;;;;;;24.30;16.80;;;;;;;;;;766041;182;918609;-68
2022/10/24 03:36:35;;;;;;;27.87;19.53;;;;;;;;;;760762;181;919880;-68
2022/10/24 03:39:01;;;;;;;30.77;19.13;;;;;;;;;;763707;181;918106;-68
2022/10/24 03:41:27;;;;;;;25.87;18.47;;;;;;;;;;771650;181;816765;-68
2022/10/24 03:43:53;;;;;;;29.37;19.80;;;;;;;;;;765775;181;919163;-68
2022/10/24 03:46:19;;;;;;;28.03;19.90;;;;;;;;;;766091;181;920510;-60
2022/10/24 03:48:46;;;;;;;33.77;22.33;;;;;;;;;;752480;181;818523;-60
2022/10/24 03:51:12;;;;;;;33.37;22.83;;;;;;;;;;765517;180;818941;-64
2022/10/24 03:53:37;;;;;;;33.03;22.57;;;;;;;;;;765204;181;779344;-68
2022/10/24 03:56:04;;;;;;;35.23;22.87;;;;;;;;;;762902;181;921437;-67
2022/10/24 03:58:29;;;;;;;36.00;20.77;;;;;;;;;;769604;179;787425;-61
2022/10/24 04:00:57;;;;;;;32.43;24.10;;;;;;;;;;758460;180;819335;-60
2022/10/24 04:03:21;;;;;;;31.33;21.83;;;;;;;;;;759995;181;918730;-67
2022/10/24 04:05:47;;;;;;;36.13;21.93;;;;;;;;;;769672;181;919607;-69
2022/10/24 04:08:13;;;;;;;34.27;22.17;;;;;;;;;;766031;181;874486;-61
2022/10/24 04:10:39;;;;;;;36.57;21.90;;;;;;;;;;770039;180;990249;-61
2022/10/24 04:13:05;;;;;;;35.50;21.13;;;;;;;;;;757231;181;865255;-67
2022/10/24 04:15:31;;;;;;;33.63;20.83;;;;;;;;;;753367;183;942713;-68
2022/10/24 04:17:56;;;;;;;28.60;19.63;;;;;;;;;;762003;181;919438;-61
2022/10/24 04:20:22;;;;;;;28.97;18.23;;;;;;;;;;773040;181;909600;-61
2022/10/24 04:22:48;;;;;;;30.60;21.03;;;;;;;;;;764544;181;913417;-61
2022/10/24 04:25:14;;;;;;;30.48;21.05;;;;;;;;;;764081;181;917526;-62
2022/10/24 04:27:40;;;;;;;33.30;22.50;;;;;;;;;;764510;179;919183;-60
2022/10/24 04:30:06;;;;;;;31.93;21.20;;;;;;;;;;769587;182;918748;-60
2022/10/24 04:32:32;;;;;;;29.57;21.67;;;;;;;;;;765623;181;918980;-61
2022/10/24 04:34:58;;;;;;;34.73;21.70;;;;;;;;;;763991;179;863471;-68
2022/10/24 04:37:24;;;;;;;33.60;22.40;;;;;;;;;;767962;181;918473;-68
2022/10/24 04:39:49;;;;;;;34.17;23.27;;;;;;;;;;768599;179;910052;-62
2022/10/24 04:42:15;;;;;;;34.27;20.70;;;;;;;;;;748842;183;916450;-61
2022/10/24 04:44:41;;;;;;;29.17;20.57;;;;;;;;;;758299;184;818859;-60
2022/10/24 04:47:07;;;;;;;36.30;23.37;;;;;;;;;;752053;183;919441;-69
2022/10/24 04:49:33;;;;;;;28.07;22.27;;;;;;;;;;774947;177;919316;-60
2022/10/24 04:51:59;;;;;;;29.50;20.03;;;;;;;;;;753452;184;909207;-61
2022/10/24 04:54:24;;;;;;;32.77;22.30;;;;;;;;;;761240;184;619313;-68
2022/10/24 04:56:50;;;;;;;26.30;19.03;;;;;;;;;;752760;184;706455;-68
2022/10/24 04:59:16;;;;;;;34.80;22.40;;;;;;;;;;748750;183;918361;-68
2022/10/24 05:01:42;;;;;;;33.00;20.73;;;;;;;;;;761350;181;919227;-61
2022/10/24 05:04:08;;;;;;;34.57;23.57;;;;;;;;;;764020;180;917646;-68
2022/10/24 05:06:34;;;;;;;35.73;21.67;;;;;;;;;;762257;182;919413;-68
2022/10/24 05:08:59;;;;;;;36.77;24.27;;;;;;;;;;768704;180;919164;-69
2022/10/24 05:11:25;;;;;;;34.53;23.90;;;;;;;;;;766171;181;919203;-69
2022/10/24 05:13:51;;;;;;;43.40;25.23;;;;;;;;;;764913;181;922393;-67
2022/10/24 05:16:17;;;;;;;39.35;24.42;;;;;;;;;;766286;181;919142;-62
2022/10/24 05:18:43;;;;;;;40.37;23.73;;;;;;;;;;768169;180;919028;-61
2022/10/24 05:21:09;;;;;;;44.37;21.77;;;;;;;;;;758212;180;917543;-68
2022/10/24 05:23:35;;;;;;;33.55;23.65;;;;;;;;;;769046;179;918849;-68
2022/10/24 05:26:00;;;;;;;37.80;23.30;;;;;;;;;;772495;181;918837;-61
2022/10/24 05:28:26;;;;;;;34.80;19.30;;;;;;;;;;770090;181;918598;-69
2022/10/24 05:30:52;;;;;;;33.90;20.23;;;;;;;;;;764031;181;921340;-61
2022/10/24 05:33:18;;;;;;;30.60;19.63;;;;;;;;;;771377;181;816927;-68
2022/10/24 05:35:44;;;;;;;30.27;21.37;;;;;;;;;;765438;181;816366;-69
2022/10/24 05:38:10;;;;;;;33.73;24.10;;;;;;;;;;766110;181;934288;-69
2022/10/24 05:40:35;;;;;;;30.77;21.07;;;;;;;;;;769342;181;917394;-61
2022/10/24 05:43:01;;;;;;;35.83;22.97;;;;;;;;;;762727;181;918114;-69
2022/10/24 05:45:27;;;;;;;39.40;24.40;;;;;;;;;;765648;181;827932;-68
2022/10/24 05:47:53;;;;;;;32.90;22.43;;;;;;;;;;764073;179;902173;-62
2022/10/24 05:50:19;;;;;;;32.70;21.67;;;;;;;;;;776201;179;914607;-69
2022/10/24 05:52:45;;;;;;;31.90;21.63;;;;;;;;;;748522;182;914112;-68
2022/10/24 05:55:11;;;;;;;30.17;21.50;;;;;;;;;;752421;181;914721;-62
2022/10/24 05:57:36;;;;;;;34.60;20.70;;;;;;;;;;771476;181;884864;-62
2022/10/24 06:00:03;;;;;;;32.53;21.37;;;;;;;;;;764186;181;921238;-62
2022/10/24 06:02:28;;;;;;;32.97;22.23;;;;;;;;;;762920;181;919237;-69
2022/10/24 06:04:55;;;;;;;31.97;21.50;;;;;;;;;;770227;179;918425;-69
2022/10/24 06:07:20;;;;;;;31.03;22.80;;;;;;;;;;765533;179;917518;-69
2022/10/24 06:09:46;;;;;;;35.87;21.70;;;;;;;;;;768370;179;930927;-69
2022/10/24 06:12:12;;;;;;;27.53;20.00;;;;;;;;;;744664;184;919122;-62
2022/10/24 06:14:38;;;;;;;28.93;20.20;;;;;;;;;;751663;184;918008;-69
2022/10/24 06:17:05;;;;;;;26.73;18.90;;;;;;;;;;749210;183;916741;-70
2022/10/24 06:19:29;;;;;;;37.20;23.30;;;;;;;;;;753756;183;918993;-62
2022/10/24 06:21:55;;;;;;;24.20;19.30;;;;;;;;;;759829;183;917472;-70
2022/10/24 06:24:21;;;;;;;37.70;23.27;;;;;;;;;;751894;183;945052;-69
2022/10/24 06:26:47;;;;;;;30.97;21.40;;;;;;;;;;761380;181;921680;-62
2022/10/24 06:29:13;;;;;;;28.70;20.17;;;;;;;;;;768333;181;919405;-62
2022/10/24 06:31:39;;;;;;;27.07;20.10;;;;;;;;;;763727;181;919568;-70
2022/10/24 06:34:04;;;;;;;30.20;20.87;;;;;;;;;;765972;180;918778;-69
2022/10/24 06:36:30;;;;;;;31.53;20.03;;;;;;;;;;767264;181;919108;-70
2022/10/24 06:38:56;;;;;;;30.17;21.63;;;;;;;;;;764446;181;922803;-64
2022/10/24 06:41:22;;;;;;;31.30;21.80;;;;;;;;;;752390;183;918852;-69
2022/10/24 06:43:48;;;;;;;31.90;20.77;;;;;;;;;;757083;177;918932;-69
2022/10/24 06:46:14;;;;;;;26.53;20.17;;;;;;;;;;768733;181;919064;-71
2022/10/24 06:48:39;;;;;;;28.57;19.93;;;;;;;;;;762297;181;922908;-62
2022/10/24 06:51:05;;;;;;;32.33;19.90;;;;;;;;;;766658;179;915740;-61
2022/10/24 06:53:31;;;;;;;39.67;23.00;;;;;;;;;;769047;181;919832;-62
2022/10/24 06:55:58;;;;;;;34.67;21.63;;;;;;;;;;764210;179;916802;-69
2022/10/24 06:58:24;;;;;;;35.50;22.63;;;;;;;;;;766127;181;916235;-70
2022/10/24 07:00:50;;;;;;;30.60;21.10;;;;;;;;;;765409;181;917037;-68
2022/10/24 07:03:16;;;;;;;32.07;21.43;;;;;;;;;;762845;180;913468;-70
2022/10/24 07:05:42;;;;;;;28.77;20.93;;;;;;;;;;747798;184;919193;-70
2022/10/24 07:08:08;;;;;;;30.50;20.90;;;;;;;;;;752004;183;919291;-62
2022/10/24 07:10:34;;;;;;;30.83;23.23;;;;;;;;;;755732;183;816740;-62
2022/10/24 07:13:00;;;;;;;33.27;22.10;;;;;;;;;;749954;183;917335;-62
2022/10/24 07:15:25;;;;;;;28.80;20.57;;;;;;;;;;750734;183;918714;-62
2022/10/24 07:17:52;;;;;;;27.20;19.20;;;;;;;;;;772973;177;919071;-70
2022/10/24 07:20:18;;;;;;;31.77;20.60;;;;;;;;;;749319;183;921476;-62
2022/10/24 07:22:44;;;;;;;29.67;19.50;;;;;;;;;;744794;183;918958;-62
2022/10/24 07:25:10;;;;;;;33.20;20.80;;;;;;;;;;752013;184;919086;-71
2022/10/24 07:27:36;;;;;;;35.53;20.80;;;;;;;;;;756796;182;914726;-62
2022/10/24 07:30:01;;;;;;;28.87;19.30;;;;;;;;;;755573;183;926056;-71
2022/10/24 07:32:27;;;;;;;24.20;16.50;;;;;;;;;;756961;183;921851;-70
2022/10/24 07:34:53;;;;;;;25.20;15.90;;;;;;;;;;777806;180;820671;-62
2022/10/24 07:37:19;;;;;;;22.67;16.83;;;;;;;;;;763988;181;910523;-63
2022/10/24 07:39:45;;;;;;;25.57;18.83;;;;;;;;;;765503;180;920482;-71
2022/10/24 07:42:11;;;;;;;25.83;16.20;;;;;;;;;;768930;182;918356;-72
2022/10/24 07:44:37;;;;;;;26.43;15.83;;;;;;;;;;767070;181;819272;-62
2022/10/24 07:47:05;;;;;;;22.70;16.37;;;;;;;;;;769976;179;918389;-72
2022/10/24 07:49:29;;;;;;;28.20;17.43;;;;;;;;;;773598;181;918997;-61
2022/10/24 07:51:54;;;;;;;23.77;16.87;;;;;;;;;;767200;179;892486;-69
2022/10/24 07:54:20;;;;;;;24.80;15.40;;;;;;;;;;771049;181;909355;-62
2022/10/24 07:56:46;;;;;;;23.80;15.90;;;;;;;;;;767578;181;911889;-60
2022/10/24 07:59:12;;;;;;;27.13;15.47;;;;;;;;;;771598;181;811884;-70
2022/10/24 08:01:38;;;;;;;23.40;15.37;;;;;;;;;;763971;181;914848;-62
2022/10/24 08:04:04;;;;;;;17.83;13.53;;;;;;;;;;763541;181;915495;-70
2022/10/24 08:06:30;;;;;;;21.23;14.60;;;;;;;;;;772106;178;902264;-70
2022/10/24 08:08:55;;;;;;;22.40;14.63;;;;;;;;;;765030;181;914089;-61
2022/10/24 08:11:21;;;;;;;21.07;14.87;;;;;;;;;;765922;181;916642;-70
2022/10/24 08:13:47;;;;;;;21.83;13.47;;;;;;;;;;768945;179;890322;-71
2022/10/24 08:16:14;;;;;;;19.20;14.07;;;;;;;;;;767667;180;914774;-70
2022/10/24 08:18:39;;;;;;;18.40;13.47;;;;;;;;;;763933;181;918440;-61
2022/10/24 08:21:05;;;;;;;21.60;13.73;;;;;;;;;;764914;181;941721;-60
2022/10/24 08:23:31;;;;;;;20.17;13.30;;;;;;;;;;769834;180;819445;-71
2022/10/24 08:25:57;;;;;;;18.77;13.77;;;;;;;;;;762706;181;941482;-61
2022/10/24 08:28:23;;;;;;;21.87;15.53;;;;;;;;;;762615;181;914946;-70
2022/10/24 08:30:53;;;;;;;20.67;15.02;;;;;;;;;;769039;180;916817;-69
2022/10/24 08:33:19;;;;;;;19.87;14.77;;;;;;;;;;765729;180;814917;-71
2022/10/24 08:35:45;;;;;;;21.33;16.00;;;;;;;;;;762084;181;918864;-73
2022/10/24 08:38:11;;;;;;;25.23;17.00;;;;;;;;;;766064;181;918891;-71
2022/10/24 08:40:37;;;;;;;29.57;15.70;;;;;;;;;;769860;180;944334;-62
2022/10/24 08:43:03;;;;;;;23.60;15.93;;;;;;;;;;752349;181;919383;-72
2022/10/24 08:45:29;;;;;;;19.53;14.93;;;;;;;;;;747321;183;919913;-61
2022/10/24 08:47:55;;;;;;;21.80;15.87;;;;;;;;;;770452;180;844832;-72
2022/10/24 08:50:23;;;;;;;21.13;14.73;;;;;;;;;;760173;178;916120;-69
2022/10/24 08:52:50;;;;;;;31.53;16.47;;;;;;;;;;750468;183;916449;-62
2022/10/24 08:55:15;;;;;;;23.03;16.20;;;;;;;;;;757158;181;918921;-70
2022/10/24 08:57:41;;;;;;;18.40;14.30;;;;;;;;;;758381;181;918082;-73
2022/10/24 09:00:12;;;;;;;20.97;14.60;;;;;;;;;;748841;182;919244;-70
2022/10/24 09:02:38;;;;;;;21.73;14.87;;;;;;;;;;753227;183;919163;-70
2022/10/24 09:05:04;;;;;;;24.67;15.07;;;;;;;;;;755543;183;921444;-72
2022/10/24 09:07:30;;;;;;;20.77;15.07;;;;;;;;;;763027;181;823287;-70
2022/10/24 09:09:57;;;;;;;20.62;15.93;;;;;;;;;;764174;181;922594;-70
2022/10/24 09:12:23;;;;;;;23.83;15.83;;;;;;;;;;768286;181;923819;-60
2022/10/24 09:14:50;;;;;;;20.37;15.10;;;;;;;;;;764273;181;916533;-60
2022/10/24 09:17:18;;;;;;;18.63;13.90;;;;;;;;;;768001;179;910643;-72
2022/10/24 09:19:44;;;;;;;19.13;15.63;;;;;;;;;;767979;181;918676;-62
2022/10/24 09:22:10;;;;;;;19.93;14.73;;;;;;;;;;762979;181;920051;-61
2022/10/24 09:24:46;;;;;;;19.03;13.87;;;;;;;;;;749257;184;919383;-61
2022/10/24 09:27:11;;;;;;;21.73;14.27;;;;;;;;;;754856;183;817028;-61
2022/10/24 09:29:37;;;;;;;23.93;14.57;;;;;;;;;;748197;184;916625;-70
2022/10/24 09:32:03;;;;;;;19.40;13.50;;;;;;;;;;761976;182;920702;-70
2022/10/24 09:34:29;;;;;;;20.37;13.87;;;;;;;;;;765248;180;917605;-71
2022/10/24 09:36:55;;;;;;;19.17;14.00;;;;;;;;;;764594;182;815624;-61
2022/10/24 09:39:21;;;;;;;23.20;17.27;;;;;;;;;;769302;179;918174;-60
2022/10/24 09:41:47;;;;;;;22.83;16.90;;;;;;;;;;763665;181;919303;-60
2022/10/24 09:44:12;;;;;;;20.23;14.60;;;;;;;;;;762608;182;920577;-60
2022/10/24 09:46:43;;;;;;;24.10;15.70;;;;;;;;;;769644;181;918313;-72
2022/10/24 09:49:06;;;;;;;29.10;15.73;;;;;;;;;;766603;182;918585;-60
2022/10/24 09:51:33;;;;;;;22.43;16.13;;;;;;;;;;770094;181;819074;-70
2022/10/24 09:53:59;;;;;;;25.90;16.17;;;;;;;;;;765883;182;919124;-70
2022/10/24 09:56:25;;;;;;;22.43;14.40;;;;;;;;;;768670;181;919329;-68
2022/10/24 09:58:51;;;;;;;16.97;13.67;;;;;;;;;;769625;180;917647;-70
2022/10/24 10:01:19;;;;;;;18.93;14.57;;;;;;;;;;767908;182;905184;-60
2022/10/24 10:03:59;;;;;;;25.43;15.80;;;;;;;;;;770451;180;919025;-70
2022/10/24 10:06:25;;;;;;;21.77;15.57;;;;;;;;;;763904;182;919364;-61
2022/10/24 10:08:51;;;;;;;25.50;16.60;;;;;;;;;;752692;183;918955;-61
2022/10/24 10:11:17;;;;;;;23.30;16.60;;;;;;;;;;767378;179;919349;-61
2022/10/24 10:13:44;;;;;;;21.73;16.20;;;;;;;;;;766292;180;816666;-71
2022/10/24 10:16:09;;;;;;;30.37;19.63;;;;;;;;;;758719;184;919162;-71
2022/10/24 10:18:41;;;;;;;27.40;20.07;;;;;;;;;;755853;183;919163;-71
2022/10/24 10:21:07;;;;;;;29.45;20.92;;;;;;;;;;745200;183;919597;-62
2022/10/24 10:23:35;;;;;;;31.40;22.60;;;;;;;;;;758671;184;920647;-62
2022/10/24 10:26:04;;;;;;;28.90;19.47;;;;;;;;;;756987;184;919912;-60
2022/10/24 10:28:30;;;;;;;27.70;19.90;;;;;;;;;;756771;183;921252;-61
2022/10/24 10:30:56;;;;;;;27.13;20.80;;;;;;;;;;767037;177;823728;-71
2022/10/24 10:33:23;;;;;;;28.63;20.33;;;;;;;;;;764680;181;919198;-61
2022/10/24 10:35:50;;;;;;;26.40;19.80;;;;;;;;;;766736;181;923263;-61
2022/10/24 10:38:37;;;;;;;37.43;21.80;;;;;;;;;;767091;180;868847;-60
2022/10/24 10:41:03;;;;;;;28.03;19.07;;;;;;;;;;769606;178;945544;-60
2022/10/24 10:43:29;;;;;;;27.67;20.45;;;;;;;;;;766475;180;918294;-69
2022/10/24 10:46:00;;;;;;;25.63;20.17;;;;;;;;;;761295;183;816154;-70
2022/10/24 10:48:34;;;;;;;30.30;20.33;;;;;;;;;;753284;184;920635;-70
2022/10/24 10:50:59;;;;;;;26.35;19.92;;;;;;;;;;741693;183;911738;-61
2022/10/24 10:53:38;;;;;;;24.83;19.20;;;;;;;;;;753972;184;896441;-61
2022/10/24 10:56:06;;;;;;;29.73;20.40;;;;;;;;;;775934;179;919032;-61
2022/10/24 10:58:39;;;;;;;27.23;19.80;;;;;;;;;;753162;181;918274;-71
2022/10/24 11:01:08;;;;;;;25.10;18.57;;;;;;;;;;749266;183;919054;-71
2022/10/24 11:03:36;;;;;;;25.03;18.13;;;;;;;;;;751026;183;916892;-60
2022/10/24 11:06:04;;;;;;;33.20;20.00;;;;;;;;;;758484;181;930824;-68
2022/10/24 11:08:45;;;;;;;23.13;16.20;;;;;;;;;;772368;179;938203;-70
2022/10/24 11:11:13;;;;;;;22.05;15.95;;;;;;;;;;756932;182;913081;-60
2022/10/24 11:13:40;;;;;;;22.90;18.03;;;;;;;;;;753528;183;920987;-70
2022/10/24 11:16:06;;;;;;;23.90;15.33;;;;;;;;;;748631;183;921793;-69
2022/10/24 11:18:32;;;;;;;21.37;16.50;;;;;;;;;;752031;183;920903;-60
2022/10/24 11:20:58;;;;;;;21.33;15.33;;;;;;;;;;770451;179;817327;-70
2022/10/24 11:23:23;;;;;;;24.13;15.70;;;;;;;;;;752572;182;918310;-69
2022/10/24 11:25:49;;;;;;;22.47;16.03;;;;;;;;;;752552;183;816390;-62
2022/10/24 11:28:19;;;;;;;22.57;14.80;;;;;;;;;;753898;183;815502;-70
2022/10/24 11:30:46;;;;;;;17.87;13.63;;;;;;;;;;753192;181;879734;-61
2022/10/24 11:33:12;;;;;;;19.20;13.37;;;;;;;;;;764901;181;912162;-70
2022/10/24 11:35:39;;;;;;;31.03;14.83;;;;;;;;;;770756;181;811662;-60
2022/10/24 11:38:06;;;;;;;21.80;14.03;;;;;;;;;;767404;179;852733;-61
2022/10/24 11:40:32;;;;;;;21.57;12.50;;;;;;;;;;765674;181;865138;-62
2022/10/24 11:43:12;;;;;;;22.50;15.27;;;;;;;;;;769816;181;802786;-70
2022/10/24 11:45:38;;;;;;;21.80;15.87;;;;;;;;;;774055;180;825033;-62
2022/10/24 11:48:09;;;;;;;20.63;13.70;;;;;;;;;;752413;180;894276;-61
2022/10/24 11:50:35;;;;;;;16.53;12.87;;;;;;;;;;749143;183;908917;-61
2022/10/24 11:53:02;;;;;;;24.27;14.20;;;;;;;;;;749720;183;925823;-62
2022/10/24 11:55:36;;;;;;;18.10;14.07;;;;;;;;;;762314;179;912860;-71
2022/10/24 11:57:56;;;;;;;21.00;15.80;;;;;;;;;;763032;181;910177;-60
2022/10/24 12:00:23;;;;;;;18.10;13.68;;;;;;;;;;762797;179;916771;-72
2022/10/24 12:03:07;;;;;;;19.53;14.47;;;;;;;;;;748159;184;915583;-71
2022/10/24 12:05:33;;;;;;;21.13;13.63;;;;;;;;;;748704;182;913339;-69
2022/10/24 12:08:14;;;;;;;16.87;13.20;;;;;;;;;;764333;182;915332;-72
2022/10/24 12:10:46;;;;;;;18.33;14.17;;;;;;;;;;762916;184;918568;-62
2022/10/24 12:13:14;;;;;;;25.20;14.40;;;;;;;;;;759081;183;928576;-61
2022/10/24 12:15:50;;;;;;;21.67;14.73;;;;;;;;;;768245;180;1020343;-71
2022/10/24 12:18:24;;;;;;;20.60;15.70;;;;;;;;;;764757;179;920411;-62
2022/10/24 12:20:50;;;;;;;22.60;15.43;;;;;;;;;;772550;181;915689;-72
2022/10/24 12:23:17;;;;;;;21.63;17.23;;;;;;;;;;765983;181;817187;-71
2022/10/24 12:25:43;;;;;;;22.53;16.10;;;;;;;;;;763312;182;928828;-60
2022/10/24 12:28:26;;;;;;;18.27;15.27;;;;;;;;;;763432;181;918731;-71
2022/10/24 12:30:58;;;;;;;20.40;15.77;;;;;;;;;;765031;179;919162;-61
2022/10/24 12:33:24;;;;;;;20.17;13.57;;;;;;;;;;771785;181;919328;-61
2022/10/24 12:35:51;;;;;;;21.13;13.87;;;;;;;;;;766187;179;918521;-61
2022/10/24 12:38:15;;;;;;;17.87;13.73;;;;;;;;;;763932;181;989582;-71
2022/10/24 12:40:47;;;;;;;21.10;14.50;;;;;;;;;;764789;181;919495;-61
2022/10/24 12:43:14;;;;;;;18.20;14.10;;;;;;;;;;767191;178;919027;-71
2022/10/24 12:45:40;;;;;;;20.07;15.20;;;;;;;;;;756908;178;918121;-70
2022/10/24 12:48:11;;;;;;;22.63;14.77;;;;;;;;;;751687;184;918358;-70
2022/10/24 12:50:53;;;;;;;23.57;16.73;;;;;;;;;;754599;183;921561;-62
2022/10/24 12:53:19;;;;;;;19.43;13.93;;;;;;;;;;765085;182;918121;-69
2022/10/24 12:56:00;;;;;;;21.37;14.63;;;;;;;;;;763918;181;920012;-61
2022/10/24 12:58:30;;;;;;;18.80;15.30;;;;;;;;;;771243;178;919362;-71
2022/10/24 13:00:56;;;;;;;21.07;15.53;;;;;;;;;;749765;184;1731153;-60
2022/10/24 13:03:22;;;;;;;20.03;15.70;;;;;;;;;;747308;183;857171;-60
2022/10/24 13:05:48;;;;;;;20.40;15.53;;;;;;;;;;755835;183;918843;-71
2022/10/24 13:08:20;;;;;;;16.43;13.33;;;;;;;;;;748934;184;932513;-71
2022/10/24 13:10:46;;;;;;;22.30;13.23;;;;;;;;;;742274;184;918634;-70
2022/10/24 13:13:23;;;;;;;16.03;12.20;;;;;;;;;;752403;183;916643;-61
2022/10/24 13:15:50;;;;;;;23.07;14.00;;;;;;;;;;765187;181;913866;-62
2022/10/24 13:18:27;;;;;;;18.63;13.13;;;;;;;;;;769164;180;818614;-69
2022/10/24 13:20:58;;;;;;;26.60;12.33;;;;;;;;;;767147;179;959395;-61
2022/10/24 13:23:24;;;;;;;16.73;12.27;;;;;;;;;;763891;180;917881;-62
2022/10/24 13:25:50;;;;;;;18.48;13.85;;;;;;;;;;762441;181;947188;-59
2022/10/24 13:28:33;;;;;;;17.93;13.50;;;;;;;;;;769268;181;918910;-60
2022/10/24 13:31:12;;;;;;;19.97;12.73;;;;;;;;;;769224;177;916767;-60
2022/10/24 13:33:40;;;;;;;17.33;13.07;;;;;;;;;;759348;184;919726;-60
2022/10/24 13:36:25;;;;;;;14.60;11.80;;;;;;;;;;747939;184;917960;-70
2022/10/24 13:38:50;;;;;;;17.80;13.80;;;;;;;;;;747583;184;918774;-71
2022/10/24 13:41:23;;;;;;;16.47;12.63;;;;;;;;;;749375;183;918318;-61
2022/10/24 13:43:48;;;;;;;14.73;11.40;;;;;;;;;;764275;180;921360;-70
2022/10/24 13:46:30;;;;;;;16.53;13.33;;;;;;;;;;755651;182;856105;-70
2022/10/24 13:48:56;;;;;;;16.70;12.40;;;;;;;;;;754862;184;815514;-70
2022/10/24 13:51:23;;;;;;;20.43;13.13;;;;;;;;;;752704;183;813912;-61
2022/10/24 13:53:51;;;;;;;20.23;13.40;;;;;;;;;;746658;183;919083;-71
2022/10/24 13:56:17;;;;;;;24.57;15.60;;;;;;;;;;756974;183;918959;-60
2022/10/24 13:58:43;;;;;;;18.70;13.63;;;;;;;;;;758086;183;815494;-70
2022/10/24 14:01:14;;;;;;;21.23;15.77;;;;;;;;;;753567;183;920341;-70
2022/10/24 14:03:40;;;;;;;26.73;16.20;;;;;;;;;;753803;183;917087;-61